sensor_id;sensor_type;location;lat;lon;timestamp;temperature;humidity
19734;DHT22;10018;51.230;7.860;2023-06-22T00:01:56;18.70;99.90
19734;DHT22;10018;51.230;7.860;2023-06-22T00:04:24;18.70;99.90
19734;DHT22;10018;51.230;7.860;2023-06-22T00:06:49;18.70;99.90
19734;DHT22;10018;51.230;7.860;2023-06-22T00:09:15;18.70;99.90
19734;DHT22;10018;51.230;7.860;2023-06-22T00:11:40;18.70;99.90
19734;DHT22;10018;51.230;7.860;2023-06-22T00:14:06;18.60;99.90
19734;DHT22;10018;51.230;7.860;2023-06-22T00:16:32;18.60;99.90
19734;DHT22;10018;51.230;7.860;2023-06-22T00:18:58;18.50;99.90
19734;DHT22;10018;51.230;7.860;2023-06-22T00:21:28;18.50;99.90
19734;DHT22;10018;51.230;7.860;2023-06-22T00:23:54;18.60;99.90
19734;DHT22;10018;51.230;7.860;2023-06-22T00:26:20;18.50;99.90
19734;DHT22;10018;51.230;7.860;2023-06-22T00:28:48;18.50;99.90
19734;DHT22;10018;51.230;7.860;2023-06-22T00:31:14;18.50;99.90
19734;DHT22;10018;51.230;7.860;2023-06-22T00:33:39;18.50;99.90
19734;DHT22;10018;51.230;7.860;2023-06-22T00:36:05;18.50;99.90
19734;DHT22;10018;51.230;7.860;2023-06-22T00:38:35;18.60;99.90
19734;DHT22;10018;51.230;7.860;2023-06-22T00:41:05;18.60;99.90
19734;DHT22;10018;51.230;7.860;2023-06-22T00:43:30;18.60;99.90
19734;DHT22;10018;51.230;7.860;2023-06-22T00:45:56;18.60;99.90
19734;DHT22;10018;51.230;7.860;2023-06-22T00:48:22;18.60;99.90
19734;DHT22;10018;51.230;7.860;2023-06-22T00:50:48;18.50;99.90
19734;DHT22;10018;51.230;7.860;2023-06-22T00:53:15;18.50;99.90
19734;DHT22;10018;51.230;7.860;2023-06-22T00:55:44;18.40;99.90
19734;DHT22;10018;51.230;7.860;2023-06-22T00:58:11;18.40;99.90
19734;DHT22;10018;51.230;7.860;2023-06-22T01:00:38;18.30;99.90
19734;DHT22;10018;51.230;7.860;2023-06-22T01:03:04;18.30;99.90
19734;DHT22;10018;51.230;7.860;2023-06-22T01:05:34;18.40;99.90
19734;DHT22;10018;51.230;7.860;2023-06-22T01:08:29;18.40;99.90
19734;DHT22;10018;51.230;7.860;2023-06-22T01:11:13;18.40;99.90
19734;DHT22;10018;51.230;7.860;2023-06-22T01:14:10;18.40;99.90
19734;DHT22;10018;51.230;7.860;2023-06-22T01:16:41;18.40;99.90
19734;DHT22;10018;51.230;7.860;2023-06-22T01:22:01;18.40;99.90
19734;DHT22;10018;51.230;7.860;2023-06-22T01:24:40;18.40;99.90
19734;DHT22;10018;51.230;7.860;2023-06-22T01:27:28;18.40;99.90
19734;DHT22;10018;51.230;7.860;2023-06-22T01:29:59;18.30;99.90
19734;DHT22;10018;51.230;7.860;2023-06-22T01:32:31;18.30;99.90
19734;DHT22;10018;51.230;7.860;2023-06-22T01:34:59;18.30;99.90
19734;DHT22;10018;51.230;7.860;2023-06-22T01:37:25;18.40;99.90
19734;DHT22;10018;51.230;7.860;2023-06-22T01:39:51;18.40;99.90
19734;DHT22;10018;51.230;7.860;2023-06-22T01:42:18;18.40;99.90
19734;DHT22;10018;51.230;7.860;2023-06-22T01:44:44;18.40;99.90
19734;DHT22;10018;51.230;7.860;2023-06-22T01:47:10;18.40;99.90
19734;DHT22;10018;51.230;7.860;2023-06-22T01:49:36;18.30;99.90
19734;DHT22;10018;51.230;7.860;2023-06-22T01:52:02;18.30;99.90
19734;DHT22;10018;51.230;7.860;2023-06-22T01:54:29;18.30;99.90
19734;DHT22;10018;51.230;7.860;2023-06-22T01:56:55;18.30;99.90
19734;DHT22;10018;51.230;7.860;2023-06-22T01:59:37;18.30;99.90
19734;DHT22;10018;51.230;7.860;2023-06-22T02:02:09;18.40;99.90
19734;DHT22;10018;51.230;7.860;2023-06-22T02:04:44;18.40;99.90
19734;DHT22;10018;51.230;7.860;2023-06-22T02:07:14;18.40;99.90
19734;DHT22;10018;51.230;7.860;2023-06-22T02:09:44;18.40;99.90
19734;DHT22;10018;51.230;7.860;2023-06-22T02:12:12;18.30;99.90
19734;DHT22;10018;51.230;7.860;2023-06-22T02:14:39;18.20;99.90
19734;DHT22;10018;51.230;7.860;2023-06-22T02:17:08;18.10;99.90
19734;DHT22;10018;51.230;7.860;2023-06-22T02:19:37;18.20;99.90
19734;DHT22;10018;51.230;7.860;2023-06-22T02:22:03;18.20;99.90
19734;DHT22;10018;51.230;7.860;2023-06-22T02:24:29;18.20;99.90
19734;DHT22;10018;51.230;7.860;2023-06-22T02:27:00;18.20;99.90
19734;DHT22;10018;51.230;7.860;2023-06-22T02:29:27;18.20;99.90
19734;DHT22;10018;51.230;7.860;2023-06-22T02:31:53;18.30;99.90
19734;DHT22;10018;51.230;7.860;2023-06-22T02:34:19;18.20;99.90
19734;DHT22;10018;51.230;7.860;2023-06-22T02:36:48;18.20;99.90
19734;DHT22;10018;51.230;7.860;2023-06-22T02:39:21;18.10;99.90
19734;DHT22;10018;51.230;7.860;2023-06-22T02:41:48;18.10;99.90
19734;DHT22;10018;51.230;7.860;2023-06-22T02:44:14;18.10;99.90
19734;DHT22;10018;51.230;7.860;2023-06-22T02:46:40;18.10;99.90
19734;DHT22;10018;51.230;7.860;2023-06-22T02:49:06;18.10;99.90
19734;DHT22;10018;51.230;7.860;2023-06-22T02:51:33;18.10;99.90
19734;DHT22;10018;51.230;7.860;2023-06-22T02:53:59;18.20;99.90
19734;DHT22;10018;51.230;7.860;2023-06-22T02:56:26;18.20;99.90
19734;DHT22;10018;51.230;7.860;2023-06-22T02:58:52;18.20;99.90
19734;DHT22;10018;51.230;7.860;2023-06-22T03:01:17;18.20;99.90
19734;DHT22;10018;51.230;7.860;2023-06-22T03:03:52;18.20;99.90
19734;DHT22;10018;51.230;7.860;2023-06-22T03:06:18;18.20;99.90
19734;DHT22;10018;51.230;7.860;2023-06-22T03:08:48;18.30;99.90
19734;DHT22;10018;51.230;7.860;2023-06-22T03:11:14;18.20;99.90
19734;DHT22;10018;51.230;7.860;2023-06-22T03:13:39;18.20;99.90
19734;DHT22;10018;51.230;7.860;2023-06-22T03:16:05;18.20;99.90
19734;DHT22;10018;51.230;7.860;2023-06-22T03:18:31;18.30;99.90
19734;DHT22;10018;51.230;7.860;2023-06-22T03:20:58;18.30;99.90
19734;DHT22;10018;51.230;7.860;2023-06-22T03:23:24;18.20;99.90
19734;DHT22;10018;51.230;7.860;2023-06-22T03:25:52;18.20;99.90
19734;DHT22;10018;51.230;7.860;2023-06-22T03:28:17;18.20;99.90
19734;DHT22;10018;51.230;7.860;2023-06-22T03:30:43;18.20;99.90
19734;DHT22;10018;51.230;7.860;2023-06-22T03:33:08;18.20;99.90
19734;DHT22;10018;51.230;7.860;2023-06-22T03:35:34;18.20;99.90
19734;DHT22;10018;51.230;7.860;2023-06-22T03:38:02;18.30;99.90
19734;DHT22;10018;51.230;7.860;2023-06-22T03:40:27;18.30;99.90
19734;DHT22;10018;51.230;7.860;2023-06-22T03:42:55;18.30;99.90
19734;DHT22;10018;51.230;7.860;2023-06-22T03:45:21;18.40;99.90
19734;DHT22;10018;51.230;7.860;2023-06-22T03:47:47;18.40;99.90
19734;DHT22;10018;51.230;7.860;2023-06-22T03:50:12;18.40;99.90
19734;DHT22;10018;51.230;7.860;2023-06-22T03:52:39;18.40;99.90
19734;DHT22;10018;51.230;7.860;2023-06-22T03:55:06;18.40;99.90
19734;DHT22;10018;51.230;7.860;2023-06-22T03:57:32;18.40;99.90
19734;DHT22;10018;51.230;7.860;2023-06-22T03:59:58;18.40;99.90
19734;DHT22;10018;51.230;7.860;2023-06-22T04:02:24;18.30;99.90
19734;DHT22;10018;51.230;7.860;2023-06-22T04:04:49;18.20;99.90
19734;DHT22;10018;51.230;7.860;2023-06-22T04:07:15;18.20;99.90
19734;DHT22;10018;51.230;7.860;2023-06-22T04:09:40;18.20;99.90
19734;DHT22;10018;51.230;7.860;2023-06-22T04:12:06;18.30;99.90
19734;DHT22;10018;51.230;7.860;2023-06-22T04:14:32;18.30;99.90
19734;DHT22;10018;51.230;7.860;2023-06-22T04:16:58;18.30;99.90
19734;DHT22;10018;51.230;7.860;2023-06-22T04:19:24;18.30;99.90
19734;DHT22;10018;51.230;7.860;2023-06-22T04:21:49;18.30;99.90
19734;DHT22;10018;51.230;7.860;2023-06-22T04:24:15;18.40;99.90
19734;DHT22;10018;51.230;7.860;2023-06-22T04:26:40;18.40;99.90
19734;DHT22;10018;51.230;7.860;2023-06-22T04:29:11;18.40;99.90
19734;DHT22;10018;51.230;7.860;2023-06-22T04:31:37;18.40;99.90
19734;DHT22;10018;51.230;7.860;2023-06-22T04:34:04;18.40;99.90
19734;DHT22;10018;51.230;7.860;2023-06-22T04:36:37;18.40;99.90
19734;DHT22;10018;51.230;7.860;2023-06-22T04:39:08;18.40;99.90
19734;DHT22;10018;51.230;7.860;2023-06-22T04:41:35;18.30;99.90
19734;DHT22;10018;51.230;7.860;2023-06-22T04:46:36;18.30;99.90
19734;DHT22;10018;51.230;7.860;2023-06-22T04:49:09;18.30;99.90
19734;DHT22;10018;51.230;7.860;2023-06-22T04:51:40;18.30;99.90
19734;DHT22;10018;51.230;7.860;2023-06-22T04:54:06;18.30;99.90
19734;DHT22;10018;51.230;7.860;2023-06-22T04:56:32;18.30;99.90
19734;DHT22;10018;51.230;7.860;2023-06-22T04:58:58;18.30;99.90
19734;DHT22;10018;51.230;7.860;2023-06-22T05:01:24;18.30;99.90
19734;DHT22;10018;51.230;7.860;2023-06-22T05:03:50;18.40;99.90
19734;DHT22;10018;51.230;7.860;2023-06-22T05:06:21;18.40;99.90
19734;DHT22;10018;51.230;7.860;2023-06-22T05:08:58;18.40;99.90
19734;DHT22;10018;51.230;7.860;2023-06-22T05:11:25;18.40;99.90
19734;DHT22;10018;51.230;7.860;2023-06-22T05:13:51;18.40;99.90
19734;DHT22;10018;51.230;7.860;2023-06-22T05:16:16;18.40;99.90
19734;DHT22;10018;51.230;7.860;2023-06-22T05:18:42;18.50;99.90
19734;DHT22;10018;51.230;7.860;2023-06-22T05:21:10;18.60;99.90
19734;DHT22;10018;51.230;7.860;2023-06-22T05:23:35;18.60;99.90
19734;DHT22;10018;51.230;7.860;2023-06-22T05:26:01;18.70;99.90
19734;DHT22;10018;51.230;7.860;2023-06-22T05:28:27;18.70;99.90
19734;DHT22;10018;51.230;7.860;2023-06-22T05:30:52;18.70;99.90
19734;DHT22;10018;51.230;7.860;2023-06-22T05:33:18;18.70;99.90
19734;DHT22;10018;51.230;7.860;2023-06-22T05:35:44;18.60;99.90
19734;DHT22;10018;51.230;7.860;2023-06-22T05:38:09;18.60;99.90
19734;DHT22;10018;51.230;7.860;2023-06-22T05:40:35;18.70;99.90
19734;DHT22;10018;51.230;7.860;2023-06-22T05:43:03;18.70;99.90
19734;DHT22;10018;51.230;7.860;2023-06-22T05:45:28;18.70;99.90
19734;DHT22;10018;51.230;7.860;2023-06-22T05:47:54;18.70;99.90
19734;DHT22;10018;51.230;7.860;2023-06-22T05:50:19;18.80;99.90
19734;DHT22;10018;51.230;7.860;2023-06-22T05:52:45;18.80;99.90
19734;DHT22;10018;51.230;7.860;2023-06-22T05:55:15;18.80;99.90
19734;DHT22;10018;51.230;7.860;2023-06-22T05:57:41;18.80;99.90
19734;DHT22;10018;51.230;7.860;2023-06-22T06:00:07;18.70;99.90
19734;DHT22;10018;51.230;7.860;2023-06-22T06:02:36;18.80;99.90
19734;DHT22;10018;51.230;7.860;2023-06-22T06:05:01;18.80;99.90
19734;DHT22;10018;51.230;7.860;2023-06-22T06:07:28;18.90;99.90
19734;DHT22;10018;51.230;7.860;2023-06-22T06:09:56;18.90;99.90
19734;DHT22;10018;51.230;7.860;2023-06-22T06:12:22;19.00;99.90
19734;DHT22;10018;51.230;7.860;2023-06-22T06:14:48;19.10;99.90
19734;DHT22;10018;51.230;7.860;2023-06-22T06:17:16;19.20;99.90
19734;DHT22;10018;51.230;7.860;2023-06-22T06:19:42;19.30;99.90
19734;DHT22;10018;51.230;7.860;2023-06-22T06:22:10;19.20;99.90
19734;DHT22;10018;51.230;7.860;2023-06-22T06:24:35;19.30;99.90
19734;DHT22;10018;51.230;7.860;2023-06-22T06:27:01;19.30;99.90
19734;DHT22;10018;51.230;7.860;2023-06-22T06:29:30;19.30;99.90
19734;DHT22;10018;51.230;7.860;2023-06-22T06:31:56;19.40;99.90
19734;DHT22;10018;51.230;7.860;2023-06-22T06:34:22;19.50;99.90
19734;DHT22;10018;51.230;7.860;2023-06-22T06:36:48;19.50;99.90
19734;DHT22;10018;51.230;7.860;2023-06-22T06:39:13;19.60;99.90
19734;DHT22;10018;51.230;7.860;2023-06-22T06:41:39;19.70;99.90
19734;DHT22;10018;51.230;7.860;2023-06-22T06:44:05;19.70;99.90
19734;DHT22;10018;51.230;7.860;2023-06-22T06:46:30;19.90;99.90
19734;DHT22;10018;51.230;7.860;2023-06-22T06:48:56;20.10;99.90
19734;DHT22;10018;51.230;7.860;2023-06-22T06:51:24;20.30;99.90
19734;DHT22;10018;51.230;7.860;2023-06-22T06:53:49;20.40;99.90
19734;DHT22;10018;51.230;7.860;2023-06-22T06:56:15;20.70;99.90
19734;DHT22;10018;51.230;7.860;2023-06-22T06:58:41;21.00;99.90
19734;DHT22;10018;51.230;7.860;2023-06-22T07:01:08;21.40;99.90
19734;DHT22;10018;51.230;7.860;2023-06-22T07:03:34;21.60;99.90
19734;DHT22;10018;51.230;7.860;2023-06-22T07:06:00;21.90;99.90
19734;DHT22;10018;51.230;7.860;2023-06-22T07:08:27;22.20;99.90
19734;DHT22;10018;51.230;7.860;2023-06-22T07:10:54;22.40;99.90
19734;DHT22;10018;51.230;7.860;2023-06-22T07:13:20;22.70;99.90
19734;DHT22;10018;51.230;7.860;2023-06-22T07:15:45;22.90;99.90
19734;DHT22;10018;51.230;7.860;2023-06-22T07:18:11;23.30;99.90
19734;DHT22;10018;51.230;7.860;2023-06-22T07:20:36;23.40;99.90
19734;DHT22;10018;51.230;7.860;2023-06-22T07:23:04;23.30;99.90
19734;DHT22;10018;51.230;7.860;2023-06-22T07:25:33;23.20;99.90
19734;DHT22;10018;51.230;7.860;2023-06-22T07:30:27;23.00;99.90
19734;DHT22;10018;51.230;7.860;2023-06-22T07:32:52;23.00;99.90
19734;DHT22;10018;51.230;7.860;2023-06-22T07:35:18;23.00;99.90
19734;DHT22;10018;51.230;7.860;2023-06-22T07:37:46;23.10;99.90
19734;DHT22;10018;51.230;7.860;2023-06-22T07:40:14;23.20;99.90
19734;DHT22;10018;51.230;7.860;2023-06-22T07:42:40;23.40;99.90
19734;DHT22;10018;51.230;7.860;2023-06-22T07:45:06;23.70;99.90
19734;DHT22;10018;51.230;7.860;2023-06-22T07:47:33;23.80;99.90
19734;DHT22;10018;51.230;7.860;2023-06-22T07:50:01;24.00;99.90
19734;DHT22;10018;51.230;7.860;2023-06-22T07:52:28;24.20;99.90
19734;DHT22;10018;51.230;7.860;2023-06-22T07:54:54;24.50;99.90
19734;DHT22;10018;51.230;7.860;2023-06-22T07:57:22;24.70;99.90
19734;DHT22;10018;51.230;7.860;2023-06-22T07:59:47;24.90;99.90
19734;DHT22;10018;51.230;7.860;2023-06-22T08:02:15;25.10;99.90
19734;DHT22;10018;51.230;7.860;2023-06-22T08:04:41;25.20;99.90
19734;DHT22;10018;51.230;7.860;2023-06-22T08:07:09;25.10;99.90
19734;DHT22;10018;51.230;7.860;2023-06-22T08:09:35;25.10;99.90
19734;DHT22;10018;51.230;7.860;2023-06-22T08:12:00;25.20;99.90
19734;DHT22;10018;51.230;7.860;2023-06-22T08:14:26;25.20;99.90
19734;DHT22;10018;51.230;7.860;2023-06-22T08:16:52;25.10;99.90
19734;DHT22;10018;51.230;7.860;2023-06-22T08:19:18;25.20;99.90
19734;DHT22;10018;51.230;7.860;2023-06-22T08:21:43;25.40;99.90
19734;DHT22;10018;51.230;7.860;2023-06-22T08:24:09;25.40;99.90
19734;DHT22;10018;51.230;7.860;2023-06-22T08:26:35;25.40;99.90
19734;DHT22;10018;51.230;7.860;2023-06-22T08:29:03;25.40;99.90
19734;DHT22;10018;51.230;7.860;2023-06-22T08:31:29;25.40;99.90
19734;DHT22;10018;51.230;7.860;2023-06-22T08:33:57;25.40;99.90
19734;DHT22;10018;51.230;7.860;2023-06-22T08:36:23;25.40;99.90
19734;DHT22;10018;51.230;7.860;2023-06-22T08:38:49;25.40;99.90
19734;DHT22;10018;51.230;7.860;2023-06-22T08:41:17;25.30;99.90
19734;DHT22;10018;51.230;7.860;2023-06-22T08:43:43;25.30;99.90
19734;DHT22;10018;51.230;7.860;2023-06-22T08:46:10;25.40;99.90
19734;DHT22;10018;51.230;7.860;2023-06-22T08:48:38;25.60;99.90
19734;DHT22;10018;51.230;7.860;2023-06-22T08:51:04;25.50;99.90
19734;DHT22;10018;51.230;7.860;2023-06-22T08:53:32;25.50;99.90
19734;DHT22;10018;51.230;7.860;2023-06-22T08:55:57;25.60;99.90
19734;DHT22;10018;51.230;7.860;2023-06-22T08:58:23;25.80;99.90
19734;DHT22;10018;51.230;7.860;2023-06-22T09:00:49;26.10;99.90
19734;DHT22;10018;51.230;7.860;2023-06-22T09:03:16;26.30;99.90
19734;DHT22;10018;51.230;7.860;2023-06-22T09:05:42;26.50;99.90
19734;DHT22;10018;51.230;7.860;2023-06-22T09:08:08;26.60;99.90
19734;DHT22;10018;51.230;7.860;2023-06-22T09:10:33;26.60;99.90
19734;DHT22;10018;51.230;7.860;2023-06-22T09:12:59;26.70;99.90
19734;DHT22;10018;51.230;7.860;2023-06-22T09:15:24;26.80;99.90
19734;DHT22;10018;51.230;7.860;2023-06-22T09:17:50;26.90;99.90
19734;DHT22;10018;51.230;7.860;2023-06-22T09:20:16;27.00;99.90
19734;DHT22;10018;51.230;7.860;2023-06-22T09:22:41;27.20;99.90
19734;DHT22;10018;51.230;7.860;2023-06-22T09:25:07;27.10;99.90
19734;DHT22;10018;51.230;7.860;2023-06-22T09:27:33;27.20;99.90
19734;DHT22;10018;51.230;7.860;2023-06-22T09:29:59;27.30;99.90
19734;DHT22;10018;51.230;7.860;2023-06-22T09:32:25;27.40;99.90
19734;DHT22;10018;51.230;7.860;2023-06-22T09:34:51;27.30;99.90
19734;DHT22;10018;51.230;7.860;2023-06-22T09:37:16;27.20;99.90
19734;DHT22;10018;51.230;7.860;2023-06-22T09:39:42;27.20;99.90
19734;DHT22;10018;51.230;7.860;2023-06-22T09:42:08;27.10;99.90
19734;DHT22;10018;51.230;7.860;2023-06-22T09:44:33;27.20;99.90
19734;DHT22;10018;51.230;7.860;2023-06-22T09:47:00;27.20;99.90
19734;DHT22;10018;51.230;7.860;2023-06-22T09:49:25;27.20;99.90
19734;DHT22;10018;51.230;7.860;2023-06-22T09:51:51;27.20;99.90
19734;DHT22;10018;51.230;7.860;2023-06-22T09:54:17;27.30;99.90
19734;DHT22;10018;51.230;7.860;2023-06-22T09:56:45;27.40;99.90
19734;DHT22;10018;51.230;7.860;2023-06-22T09:59:11;27.30;99.90
19734;DHT22;10018;51.230;7.860;2023-06-22T10:01:36;27.30;99.90
19734;DHT22;10018;51.230;7.860;2023-06-22T10:04:03;27.40;99.90
19734;DHT22;10018;51.230;7.860;2023-06-22T10:06:28;27.30;99.90
19734;DHT22;10018;51.230;7.860;2023-06-22T10:08:54;27.30;99.90
19734;DHT22;10018;51.230;7.860;2023-06-22T10:11:19;27.20;99.90
19734;DHT22;10018;51.230;7.860;2023-06-22T10:13:45;27.10;99.90
19734;DHT22;10018;51.230;7.860;2023-06-22T10:16:11;27.30;99.90
19734;DHT22;10018;51.230;7.860;2023-06-22T10:18:36;27.30;99.90
19734;DHT22;10018;51.230;7.860;2023-06-22T10:21:02;27.30;99.90
19734;DHT22;10018;51.230;7.860;2023-06-22T10:23:27;27.30;99.90
19734;DHT22;10018;51.230;7.860;2023-06-22T10:25:55;27.20;99.90
19734;DHT22;10018;51.230;7.860;2023-06-22T10:28:23;27.30;99.90
19734;DHT22;10018;51.230;7.860;2023-06-22T10:30:49;27.50;99.90
19734;DHT22;10018;51.230;7.860;2023-06-22T10:33:14;27.60;99.90
19734;DHT22;10018;51.230;7.860;2023-06-22T10:35:40;27.50;99.90
19734;DHT22;10018;51.230;7.860;2023-06-22T10:38:06;27.50;99.90
19734;DHT22;10018;51.230;7.860;2023-06-22T10:40:32;27.40;99.90
19734;DHT22;10018;51.230;7.860;2023-06-22T10:42:58;27.20;99.90
19734;DHT22;10018;51.230;7.860;2023-06-22T10:45:23;27.20;99.90
19734;DHT22;10018;51.230;7.860;2023-06-22T10:47:49;27.10;99.90
19734;DHT22;10018;51.230;7.860;2023-06-22T10:50:15;26.90;99.90
19734;DHT22;10018;51.230;7.860;2023-06-22T10:52:41;26.90;99.90
19734;DHT22;10018;51.230;7.860;2023-06-22T10:55:10;26.80;99.90
19734;DHT22;10018;51.230;7.860;2023-06-22T10:57:35;26.80;99.90
19734;DHT22;10018;51.230;7.860;2023-06-22T11:00:02;26.70;99.90
19734;DHT22;10018;51.230;7.860;2023-06-22T11:02:31;26.70;99.90
19734;DHT22;10018;51.230;7.860;2023-06-22T11:04:56;26.40;99.90
19734;DHT22;10018;51.230;7.860;2023-06-22T11:07:28;26.30;99.90
19734;DHT22;10018;51.230;7.860;2023-06-22T11:09:54;26.30;99.90
19734;DHT22;10018;51.230;7.860;2023-06-22T11:12:20;26.20;99.90
19734;DHT22;10018;51.230;7.860;2023-06-22T11:14:48;26.10;99.90
19734;DHT22;10018;51.230;7.860;2023-06-22T11:17:15;26.00;99.90
19734;DHT22;10018;51.230;7.860;2023-06-22T11:19:41;25.90;99.90
19734;DHT22;10018;51.230;7.860;2023-06-22T11:22:06;25.80;99.90
19734;DHT22;10018;51.230;7.860;2023-06-22T11:24:32;25.70;99.90
19734;DHT22;10018;51.230;7.860;2023-06-22T11:26:57;25.60;99.90
19734;DHT22;10018;51.230;7.860;2023-06-22T11:29:25;25.40;99.90
19734;DHT22;10018;51.230;7.860;2023-06-22T11:31:51;25.40;99.90
19734;DHT22;10018;51.230;7.860;2023-06-22T11:34:16;25.10;99.90
19734;DHT22;10018;51.230;7.860;2023-06-22T11:36:42;24.90;99.90
19734;DHT22;10018;51.230;7.860;2023-06-22T11:39:09;24.90;99.90
19734;DHT22;10018;51.230;7.860;2023-06-22T11:41:35;24.80;99.90
19734;DHT22;10018;51.230;7.860;2023-06-22T11:44:01;24.70;99.90
19734;DHT22;10018;51.230;7.860;2023-06-22T11:46:26;24.50;99.90
19734;DHT22;10018;51.230;7.860;2023-06-22T11:48:52;24.40;99.90
19734;DHT22;10018;51.230;7.860;2023-06-22T11:51:19;24.30;99.90
19734;DHT22;10018;51.230;7.860;2023-06-22T11:53:45;24.30;99.90
19734;DHT22;10018;51.230;7.860;2023-06-22T11:56:10;24.30;99.90
19734;DHT22;10018;51.230;7.860;2023-06-22T11:58:38;24.30;99.90
19734;DHT22;10018;51.230;7.860;2023-06-22T12:01:04;24.20;99.90
19734;DHT22;10018;51.230;7.860;2023-06-22T12:03:30;24.10;99.90
19734;DHT22;10018;51.230;7.860;2023-06-22T12:05:56;24.00;99.90
19734;DHT22;10018;51.230;7.860;2023-06-22T12:08:21;23.90;99.90
19734;DHT22;10018;51.230;7.860;2023-06-22T12:10:48;23.80;99.90
19734;DHT22;10018;51.230;7.860;2023-06-22T12:13:15;23.60;99.90
19734;DHT22;10018;51.230;7.860;2023-06-22T12:15:40;23.50;99.90
19734;DHT22;10018;51.230;7.860;2023-06-22T12:18:06;23.40;99.90
19734;DHT22;10018;51.230;7.860;2023-06-22T12:20:32;23.20;99.90
19734;DHT22;10018;51.230;7.860;2023-06-22T12:23:00;23.10;99.90
19734;DHT22;10018;51.230;7.860;2023-06-22T12:25:25;23.10;99.90
19734;DHT22;10018;51.230;7.860;2023-06-22T12:27:51;22.90;99.90
19734;DHT22;10018;51.230;7.860;2023-06-22T12:30:16;22.90;99.90
19734;DHT22;10018;51.230;7.860;2023-06-22T12:32:42;22.80;99.90
19734;DHT22;10018;51.230;7.860;2023-06-22T12:35:08;22.70;99.90
19734;DHT22;10018;51.230;7.860;2023-06-22T12:37:40;22.70;99.90
19734;DHT22;10018;51.230;7.860;2023-06-22T12:40:06;22.60;99.90
19734;DHT22;10018;51.230;7.860;2023-06-22T12:42:34;22.60;99.90
19734;DHT22;10018;51.230;7.860;2023-06-22T12:45:00;22.50;99.90
19734;DHT22;10018;51.230;7.860;2023-06-22T12:47:25;22.50;99.90
19734;DHT22;10018;51.230;7.860;2023-06-22T12:49:51;22.50;99.90
19734;DHT22;10018;51.230;7.860;2023-06-22T12:52:16;22.50;99.90
19734;DHT22;10018;51.230;7.860;2023-06-22T12:54:42;22.40;99.90
19734;DHT22;10018;51.230;7.860;2023-06-22T12:57:07;22.40;99.90
19734;DHT22;10018;51.230;7.860;2023-06-22T12:59:33;22.30;99.90
19734;DHT22;10018;51.230;7.860;2023-06-22T13:01:59;22.40;99.90
19734;DHT22;10018;51.230;7.860;2023-06-22T13:04:27;22.40;99.90
19734;DHT22;10018;51.230;7.860;2023-06-22T13:06:52;22.40;99.90
19734;DHT22;10018;51.230;7.860;2023-06-22T13:09:18;22.40;99.90
19734;DHT22;10018;51.230;7.860;2023-06-22T13:11:44;22.50;99.90
19734;DHT22;10018;51.230;7.860;2023-06-22T13:14:10;22.40;99.90
19734;DHT22;10018;51.230;7.860;2023-06-22T13:16:36;22.50;99.90
19734;DHT22;10018;51.230;7.860;2023-06-22T13:19:01;22.60;99.90
19734;DHT22;10018;51.230;7.860;2023-06-22T13:21:27;22.80;99.90
19734;DHT22;10018;51.230;7.860;2023-06-22T13:23:53;22.90;99.90
19734;DHT22;10018;51.230;7.860;2023-06-22T13:26:18;23.10;99.90
19734;DHT22;10018;51.230;7.860;2023-06-22T13:28:44;23.30;99.90
19734;DHT22;10018;51.230;7.860;2023-06-22T13:31:09;23.40;99.90
19734;DHT22;10018;51.230;7.860;2023-06-22T13:33:37;23.70;99.90
19734;DHT22;10018;51.230;7.860;2023-06-22T13:36:03;23.70;99.90
19734;DHT22;10018;51.230;7.860;2023-06-22T13:38:29;23.90;99.90
19734;DHT22;10018;51.230;7.860;2023-06-22T13:40:56;23.90;99.90
19734;DHT22;10018;51.230;7.860;2023-06-22T13:43:23;24.10;99.90
19734;DHT22;10018;51.230;7.860;2023-06-22T13:45:49;24.20;99.90
19734;DHT22;10018;51.230;7.860;2023-06-22T13:48:15;24.20;99.90
19734;DHT22;10018;51.230;7.860;2023-06-22T13:50:40;24.40;99.90
19734;DHT22;10018;51.230;7.860;2023-06-22T13:53:06;24.40;99.90
19734;DHT22;10018;51.230;7.860;2023-06-22T13:55:31;24.50;99.90
19734;DHT22;10018;51.230;7.860;2023-06-22T13:57:57;24.80;99.90
19734;DHT22;10018;51.230;7.860;2023-06-22T14:00:27;24.80;99.90
19734;DHT22;10018;51.230;7.860;2023-06-22T14:02:53;25.10;99.90
19734;DHT22;10018;51.230;7.860;2023-06-22T14:05:19;25.40;99.90
19734;DHT22;10018;51.230;7.860;2023-06-22T14:07:45;25.60;99.90
19734;DHT22;10018;51.230;7.860;2023-06-22T14:10:13;25.60;99.90
19734;DHT22;10018;51.230;7.860;2023-06-22T14:12:39;25.60;99.90
19734;DHT22;10018;51.230;7.860;2023-06-22T14:15:05;25.50;99.90
19734;DHT22;10018;51.230;7.860;2023-06-22T14:17:30;25.60;99.90
19734;DHT22;10018;51.230;7.860;2023-06-22T14:19:56;25.60;99.90
19734;DHT22;10018;51.230;7.860;2023-06-22T14:22:22;25.60;99.90
19734;DHT22;10018;51.230;7.860;2023-06-22T14:24:48;25.50;99.90
19734;DHT22;10018;51.230;7.860;2023-06-22T14:27:14;25.50;99.90
19734;DHT22;10018;51.230;7.860;2023-06-22T14:29:40;25.20;99.90
19734;DHT22;10018;51.230;7.860;2023-06-22T14:32:07;25.00;99.90
19734;DHT22;10018;51.230;7.860;2023-06-22T14:34:33;24.60;99.90
19734;DHT22;10018;51.230;7.860;2023-06-22T14:37:02;24.60;99.90
19734;DHT22;10018;51.230;7.860;2023-06-22T14:39:27;24.50;99.90
19734;DHT22;10018;51.230;7.860;2023-06-22T14:41:55;24.60;99.90
19734;DHT22;10018;51.230;7.860;2023-06-22T14:44:21;24.70;99.90
19734;DHT22;10018;51.230;7.860;2023-06-22T14:46:47;24.60;99.90
19734;DHT22;10018;51.230;7.860;2023-06-22T14:49:12;24.50;99.90
19734;DHT22;10018;51.230;7.860;2023-06-22T14:51:38;24.50;99.90
19734;DHT22;10018;51.230;7.860;2023-06-22T14:54:03;24.50;99.90
19734;DHT22;10018;51.230;7.860;2023-06-22T14:56:29;24.30;99.90
19734;DHT22;10018;51.230;7.860;2023-06-22T14:58:55;24.30;99.90
19734;DHT22;10018;51.230;7.860;2023-06-22T15:01:20;24.20;99.90
19734;DHT22;10018;51.230;7.860;2023-06-22T15:03:46;24.10;99.90
19734;DHT22;10018;51.230;7.860;2023-06-22T15:06:11;23.90;99.90
19734;DHT22;10018;51.230;7.860;2023-06-22T15:08:40;23.90;99.90
19734;DHT22;10018;51.230;7.860;2023-06-22T15:11:12;23.80;99.90
19734;DHT22;10018;51.230;7.860;2023-06-22T15:13:41;23.80;99.90
19734;DHT22;10018;51.230;7.860;2023-06-22T15:16:07;23.70;99.90
19734;DHT22;10018;51.230;7.860;2023-06-22T15:18:34;23.60;99.90
19734;DHT22;10018;51.230;7.860;2023-06-22T15:21:01;23.60;99.90
19734;DHT22;10018;51.230;7.860;2023-06-22T15:23:30;23.50;99.90
19734;DHT22;10018;51.230;7.860;2023-06-22T15:25:57;23.30;99.90
19734;DHT22;10018;51.230;7.860;2023-06-22T15:28:23;23.30;99.90
19734;DHT22;10018;51.230;7.860;2023-06-22T15:30:50;23.10;99.90
19734;DHT22;10018;51.230;7.860;2023-06-22T15:33:19;23.00;99.90
19734;DHT22;10018;51.230;7.860;2023-06-22T15:35:44;22.80;99.90